createdAt,value
2023-02-14T00:02:09.426Z,24.60
2023-02-14T00:04:45.119Z,24.60
2023-02-14T00:07:14.575Z,24.70
2023-02-14T00:09:44.146Z,24.60
2023-02-14T00:12:13.467Z,24.70
2023-02-14T00:15:00.867Z,24.70
2023-02-14T00:17:30.288Z,24.70
2023-02-14T00:19:59.515Z,24.80
2023-02-14T00:22:28.814Z,24.80
2023-02-14T00:24:59.117Z,24.80
2023-02-14T00:27:28.570Z,24.90
2023-02-14T00:30:02.946Z,25.00
2023-02-14T00:32:33.533Z,25.10
2023-02-14T00:35:02.868Z,25.20
2023-02-14T00:37:32.151Z,25.30
2023-02-14T00:40:01.803Z,25.40
2023-02-14T00:42:31.081Z,25.60
2023-02-14T00:45:00.310Z,25.70
2023-02-14T00:47:29.812Z,25.80
2023-02-14T00:50:03.719Z,25.90
2023-02-14T00:52:33.667Z,26.00
2023-02-14T00:55:02.950Z,26.10
2023-02-14T00:57:32.233Z,26.20
2023-02-14T01:00:01.423Z,26.20
2023-02-14T01:02:30.704Z,26.30
2023-02-14T01:04:59.982Z,26.30
2023-02-14T01:07:29.300Z,26.30
2023-02-14T01:09:58.539Z,26.40
2023-02-14T01:12:27.899Z,26.40
2023-02-14T01:14:57.318Z,26.40
2023-02-14T01:17:26.552Z,26.40
2023-02-14T01:19:56.469Z,26.40
2023-02-14T01:22:25.868Z,26.40
2023-02-14T01:24:55.123Z,26.50
2023-02-14T01:27:24.317Z,26.50
2023-02-14T01:29:54.103Z,26.50
2023-02-14T01:32:23.510Z,26.60
2023-02-14T01:34:52.881Z,26.60
2023-02-14T01:37:22.116Z,26.70
2023-02-14T01:39:51.819Z,26.70
2023-02-14T01:42:21.494Z,26.80
2023-02-14T01:45:11.033Z,26.80
2023-02-14T01:47:46.283Z,26.80
2023-02-14T01:50:42.565Z,26.90
2023-02-14T01:53:22.160Z,27.00
2023-02-14T01:56:06.351Z,27.00
2023-02-14T01:58:41.580Z,27.10
2023-02-14T02:01:10.982Z,27.20
2023-02-14T02:04:01.415Z,27.30
2023-02-14T02:07:00.871Z,27.40
2023-02-14T02:09:56.124Z,27.60
2023-02-14T02:12:25.968Z,27.70
2023-02-14T02:14:57.816Z,27.80
2023-02-14T02:17:50.294Z,27.90
2023-02-14T02:20:31.652Z,28.00
2023-02-14T02:23:28.077Z,28.10
2023-02-14T02:26:36.664Z,28.20
2023-02-14T02:29:53.370Z,28.30
2023-02-14T02:32:49.884Z,28.40
2023-02-14T02:36:18.591Z,28.50
2023-02-14T02:39:16.805Z,28.70
2023-02-14T02:42:27.259Z,28.80
2023-02-14T02:45:26.116Z,29.00
2023-02-14T02:48:08.904Z,29.10
2023-02-14T02:51:13.331Z,29.30
2023-02-14T02:54:33.663Z,29.50
2023-02-14T02:57:09.301Z,29.60
2023-02-14T02:59:46.106Z,29.80
2023-02-14T03:03:06.991Z,29.90
2023-02-14T03:05:37.735Z,30.00
2023-02-14T03:08:08.104Z,30.20
2023-02-14T03:10:41.025Z,30.30
2023-02-14T03:13:54.994Z,30.30
2023-02-14T03:16:42.962Z,30.50
2023-02-14T03:20:02.025Z,30.60
2023-02-14T03:22:45.305Z,30.80
2023-02-14T03:25:40.898Z,30.90
2023-02-14T03:28:41.323Z,31.00
2023-02-14T03:31:36.401Z,31.10
2023-02-14T03:34:47.124Z,31.10
2023-02-14T03:37:23.443Z,31.20
2023-02-14T03:40:17.438Z,31.30
2023-02-14T03:43:02.699Z,31.40
2023-02-14T03:45:45.886Z,31.50
2023-02-14T03:48:21.030Z,31.60
2023-02-14T03:50:54.089Z,31.70
2023-02-14T03:53:30.613Z,31.80
2023-02-14T03:56:28.197Z,31.90
2023-02-14T03:59:07.176Z,32.10
2023-02-14T04:02:04.051Z,32.10
2023-02-14T04:04:38.311Z,32.20
2023-02-14T04:07:20.805Z,32.30
2023-02-14T04:09:50.976Z,32.30
2023-02-14T04:12:35.728Z,32.40
2023-02-14T04:15:08.049Z,32.40
2023-02-14T04:17:55.516Z,32.60
2023-02-14T04:20:25.248Z,32.70
2023-02-14T04:22:54.692Z,32.80
2023-02-14T04:25:25.743Z,33.00
2023-02-14T04:27:55.116Z,33.00
2023-02-14T04:30:25.217Z,33.10
2023-02-14T04:32:54.722Z,33.10
2023-02-14T04:35:23.968Z,33.10
2023-02-14T04:37:54.074Z,33.10
2023-02-14T04:40:24.828Z,33.10
2023-02-14T04:42:54.580Z,33.10
2023-02-14T04:45:23.861Z,33.20
2023-02-14T04:47:53.135Z,33.40
2023-02-14T04:50:24.322Z,33.50
2023-02-14T04:52:54.779Z,33.60
2023-02-14T04:55:23.942Z,33.70
2023-02-14T04:57:53.291Z,33.90
2023-02-14T05:00:23.300Z,34.00
2023-02-14T05:02:52.436Z,34.10
2023-02-14T05:05:21.650Z,34.20
2023-02-14T05:07:50.901Z,34.30
2023-02-14T05:10:20.151Z,34.30
2023-02-14T05:12:49.213Z,34.40
2023-02-14T05:15:18.381Z,34.50
2023-02-14T05:17:47.427Z,34.70
2023-02-14T05:20:16.608Z,34.70
2023-02-14T05:22:45.662Z,34.80
2023-02-14T05:25:14.763Z,34.90
2023-02-14T05:27:43.800Z,35.00
2023-02-14T05:30:15.040Z,35.20
2023-02-14T05:32:44.110Z,35.20
2023-02-14T05:35:13.247Z,35.30
2023-02-14T05:37:42.357Z,35.50
2023-02-14T05:40:14.891Z,35.50
2023-02-14T05:42:45.151Z,35.50
2023-02-14T05:45:14.885Z,35.50
2023-02-14T05:47:44.109Z,35.40
2023-02-14T05:50:13.910Z,35.30
2023-02-14T05:52:43.362Z,35.40
2023-02-14T05:55:12.817Z,35.50
2023-02-14T05:57:42.385Z,35.50
2023-02-14T06:00:12.760Z,35.60
2023-02-14T06:02:42.327Z,35.70
2023-02-14T06:05:11.927Z,35.70
2023-02-14T06:07:44.063Z,35.70
2023-02-14T06:10:13.847Z,35.80
2023-02-14T06:12:43.138Z,35.90
2023-02-14T06:15:13.070Z,36.00
2023-02-14T06:17:42.465Z,36.10
2023-02-14T06:20:14.533Z,36.20
2023-02-14T06:22:43.872Z,36.40
2023-02-14T06:25:13.148Z,36.50
2023-02-14T06:27:42.907Z,36.60
2023-02-14T06:30:13.221Z,36.60
2023-02-14T06:32:42.588Z,36.70
2023-02-14T06:35:12.103Z,36.70
2023-02-14T06:37:43.032Z,36.70
2023-02-14T06:40:14.666Z,36.70
2023-02-14T06:42:44.297Z,36.70
2023-02-14T06:45:13.659Z,36.70
2023-02-14T06:47:43.099Z,36.70
2023-02-14T06:50:12.816Z,36.80
2023-02-14T06:52:43.788Z,36.90
2023-02-14T06:55:14.792Z,37.00
2023-02-14T06:57:44.075Z,37.10
2023-02-14T07:00:15.778Z,37.20
2023-02-14T07:02:45.548Z,37.20
2023-02-14T07:05:16.267Z,37.30
2023-02-14T07:07:45.930Z,37.30
2023-02-14T07:10:15.277Z,37.30
2023-02-14T07:12:44.606Z,37.30
2023-02-14T07:15:16.386Z,37.30
2023-02-14T07:17:46.459Z,37.20
2023-02-14T07:20:19.967Z,37.20
2023-02-14T07:22:49.286Z,37.10
2023-02-14T07:25:18.832Z,37.00
2023-02-14T07:27:48.934Z,37.00
2023-02-14T07:30:18.596Z,36.90
2023-02-14T07:32:47.928Z,37.00
2023-02-14T07:35:17.228Z,37.10
2023-02-14T07:37:46.696Z,37.10
2023-02-14T07:40:16.186Z,37.20
2023-02-14T07:42:46.046Z,37.30
2023-02-14T07:45:21.697Z,37.40
2023-02-14T07:47:55.760Z,37.40
2023-02-14T07:50:25.712Z,37.50
2023-02-14T07:52:55.114Z,37.60
2023-02-14T07:55:27.843Z,37.60
2023-02-14T07:57:57.214Z,37.50
2023-02-14T08:00:26.669Z,37.50
2023-02-14T08:02:57.134Z,37.50
2023-02-14T08:05:26.552Z,37.60
2023-02-14T08:07:55.823Z,37.60
2023-02-14T08:10:25.224Z,37.70
2023-02-14T08:13:00.360Z,37.70
2023-02-14T08:15:50.537Z,37.70
2023-02-14T08:18:24.005Z,37.60
2023-02-14T08:20:53.534Z,37.60
2023-02-14T08:23:23.906Z,37.60
2023-02-14T08:25:54.813Z,37.60
2023-02-14T08:28:24.839Z,37.50
2023-02-14T08:30:55.078Z,37.50
2023-02-14T08:33:24.647Z,37.40
2023-02-14T08:35:54.716Z,37.30
2023-02-14T08:38:24.800Z,37.30
2023-02-14T08:40:55.381Z,37.20
2023-02-14T08:43:24.715Z,37.20
2023-02-14T08:45:57.434Z,37.20
2023-02-14T08:48:27.967Z,37.20
2023-02-14T08:50:57.984Z,37.20
2023-02-14T08:53:27.709Z,37.10
2023-02-14T08:55:57.512Z,37.20
2023-02-14T08:58:26.990Z,37.20
2023-02-14T09:00:56.919Z,37.20
2023-02-14T09:03:26.606Z,37.20
2023-02-14T09:05:57.209Z,37.20
2023-02-14T09:08:26.996Z,37.20
2023-02-14T09:10:56.852Z,37.20
2023-02-14T09:13:26.956Z,37.20
2023-02-14T09:15:56.693Z,37.20
2023-02-14T09:18:26.140Z,37.20
2023-02-14T09:20:55.386Z,37.20
2023-02-14T09:23:24.789Z,37.20
2023-02-14T09:26:06.502Z,37.20
2023-02-14T09:28:37.633Z,37.10
2023-02-14T09:31:17.879Z,37.10
2023-02-14T09:34:07.846Z,37.00
2023-02-14T09:36:55.501Z,36.90
2023-02-14T09:39:24.981Z,36.80
2023-02-14T09:42:27.809Z,36.80
2023-02-14T09:45:01.347Z,36.70
2023-02-14T09:47:52.362Z,36.70
2023-02-14T09:50:55.218Z,36.60
2023-02-14T09:53:52.528Z,36.60
2023-02-14T09:56:52.275Z,36.50
2023-02-14T09:59:29.658Z,36.40
2023-02-14T10:02:35.992Z,36.30
2023-02-14T10:05:30.533Z,36.30
2023-02-14T10:08:00.101Z,36.10
2023-02-14T10:11:03.763Z,36.00
2023-02-14T10:13:53.946Z,35.90
2023-02-14T10:16:56.098Z,35.70
2023-02-14T10:19:35.996Z,35.60
2023-02-14T10:22:17.471Z,35.40
2023-02-14T10:25:46.777Z,35.40
2023-02-14T10:28:23.815Z,35.20
2023-02-14T10:31:02.848Z,35.10
2023-02-14T10:33:37.556Z,35.00
2023-02-14T10:36:26.522Z,34.90
2023-02-14T10:39:22.987Z,34.80
2023-02-14T10:42:03.711Z,34.80
2023-02-14T10:45:26.538Z,34.70
2023-02-14T10:48:40.870Z,34.60
2023-02-14T10:52:05.601Z,34.60
2023-02-14T10:55:01.597Z,34.50
2023-02-14T10:57:49.883Z,34.40
2023-02-14T11:00:51.448Z,34.30
2023-02-14T11:03:21.727Z,34.20
2023-02-14T11:05:51.923Z,34.10
2023-02-14T11:08:36.629Z,34.00
2023-02-14T11:11:37.133Z,33.90
2023-02-14T11:14:30.825Z,33.80
2023-02-14T11:17:21.727Z,33.60
2023-02-14T11:20:23.608Z,33.50
2023-02-14T11:22:53.222Z,33.40
2023-02-14T11:25:25.813Z,33.20
2023-02-14T11:28:05.716Z,33.10
2023-02-14T11:30:48.833Z,33.00
2023-02-14T11:33:36.288Z,32.90
2023-02-14T11:36:14.730Z,32.80
2023-02-14T11:38:46.562Z,32.70
2023-02-14T11:41:19.218Z,32.70
2023-02-14T11:43:50.471Z,32.60
2023-02-14T11:46:22.592Z,32.50
2023-02-14T11:49:31.475Z,32.50
2023-02-14T11:52:17.387Z,32.40
2023-02-14T11:54:51.382Z,32.40
2023-02-14T11:57:23.741Z,32.30
2023-02-14T11:59:58.054Z,32.30
2023-02-14T12:02:44.833Z,32.30
2023-02-14T12:05:47.372Z,32.20
2023-02-14T12:08:24.709Z,32.10
2023-02-14T12:11:25.778Z,32.10
2023-02-14T12:13:59.610Z,32.00
2023-02-14T12:16:42.740Z,31.90
2023-02-14T12:19:21.919Z,31.80
2023-02-14T12:22:02.708Z,31.70
2023-02-14T12:24:36.604Z,31.70
2023-02-14T12:27:35.632Z,31.60
2023-02-14T12:30:26.858Z,31.50
2023-02-14T12:32:58.168Z,31.50
2023-02-14T12:36:08.411Z,31.40
2023-02-14T12:38:54.741Z,31.40
2023-02-14T12:41:51.233Z,31.30
2023-02-14T12:44:35.379Z,31.30
2023-02-14T12:47:48.652Z,31.20
2023-02-14T12:50:48.735Z,31.20
2023-02-14T12:54:04.039Z,31.10
2023-02-14T12:57:13.455Z,31.10
2023-02-14T12:59:54.709Z,31.00
2023-02-14T13:03:03.593Z,31.00
2023-02-14T13:06:20.069Z,30.90
2023-02-14T13:09:25.848Z,30.80
2023-02-14T13:12:36.192Z,30.80
2023-02-14T13:15:53.683Z,30.70
2023-02-14T13:19:10.150Z,30.70
2023-02-14T13:21:42.893Z,30.60
2023-02-14T13:24:46.121Z,30.60
2023-02-14T13:27:25.917Z,30.50
2023-02-14T13:30:24.082Z,30.50
2023-02-14T13:32:58.442Z,30.40
2023-02-14T13:35:31.370Z,30.40
2023-02-14T13:38:10.296Z,30.30
2023-02-14T13:40:41.605Z,30.30
2023-02-14T13:43:11.285Z,30.30
2023-02-14T13:45:53.815Z,30.20
2023-02-14T13:48:30.881Z,30.20
2023-02-14T13:51:06.738Z,30.10
2023-02-14T13:53:36.212Z,30.10
2023-02-14T13:56:32.689Z,30.00
2023-02-14T13:59:08.019Z,30.00
2023-02-14T14:01:51.234Z,30.00
2023-02-14T14:04:29.926Z,29.90
2023-02-14T14:07:05.137Z,29.90
2023-02-14T14:09:46.738Z,29.80
2023-02-14T14:12:30.857Z,29.80
2023-02-14T14:15:12.056Z,29.70
2023-02-14T14:17:50.990Z,29.70
2023-02-14T14:20:24.276Z,29.70
2023-02-14T14:23:02.469Z,29.60
2023-02-14T14:25:35.784Z,29.50
2023-02-14T14:28:14.166Z,29.50
2023-02-14T14:30:46.495Z,29.40
2023-02-14T14:33:33.505Z,29.30
2023-02-14T14:36:12.395Z,29.30
2023-02-14T14:38:56.881Z,29.20
2023-02-14T14:41:33.604Z,29.10
2023-02-14T14:44:03.545Z,29.10
2023-02-14T14:46:33.357Z,29.10
2023-02-14T14:49:04.135Z,29.00
2023-02-14T14:51:37.884Z,29.00
2023-02-14T14:54:17.122Z,29.00
2023-02-14T14:56:58.443Z,28.90
2023-02-14T14:59:40.542Z,28.90
2023-02-14T15:02:28.808Z,28.80
2023-02-14T15:04:58.157Z,28.80
2023-02-14T15:07:35.763Z,28.80
2023-02-14T15:10:05.686Z,28.70
2023-02-14T15:12:54.770Z,28.70
2023-02-14T15:15:25.092Z,28.70
2023-02-14T15:17:54.273Z,28.70
2023-02-14T15:20:26.615Z,28.60
2023-02-14T15:22:56.068Z,28.60
2023-02-14T15:25:31.953Z,28.60
2023-02-14T15:28:02.830Z,28.60
2023-02-14T15:30:38.265Z,28.60
2023-02-14T15:33:09.118Z,28.50
2023-02-14T15:35:44.956Z,28.50
2023-02-14T15:38:15.280Z,28.50
2023-02-14T15:40:46.261Z,28.40
2023-02-14T15:43:35.114Z,28.40
2023-02-14T15:46:38.126Z,28.40
2023-02-14T15:49:21.739Z,28.30
2023-02-14T15:51:52.374Z,28.30
2023-02-14T15:54:34.213Z,28.30
2023-02-14T15:57:05.483Z,28.20
2023-02-14T15:59:42.988Z,28.20
2023-02-14T16:02:33.990Z,28.20
2023-02-14T16:05:23.906Z,28.10
2023-02-14T16:08:04.873Z,28.10
2023-02-14T16:10:39.727Z,28.10
2023-02-14T16:13:30.434Z,28.10
2023-02-14T16:16:07.742Z,28.10
2023-02-14T16:18:42.070Z,28.00
2023-02-14T16:21:29.942Z,28.00
2023-02-14T16:24:13.769Z,28.00
2023-02-14T16:26:46.295Z,28.00
2023-02-14T16:29:23.599Z,27.90
2023-02-14T16:32:15.315Z,27.90
2023-02-14T16:34:48.161Z,27.90
2023-02-14T16:37:32.770Z,27.80
2023-02-14T16:40:04.363Z,27.80
2023-02-14T16:42:33.713Z,27.80
2023-02-14T16:45:02.825Z,27.70
2023-02-14T16:47:32.612Z,27.70
2023-02-14T16:50:01.733Z,27.70
2023-02-14T16:52:31.450Z,27.70
2023-02-14T16:55:00.595Z,27.70
2023-02-14T16:57:36.740Z,27.60
2023-02-14T17:00:08.204Z,27.60
2023-02-14T17:02:38.357Z,27.60
2023-02-14T17:05:08.192Z,27.50
2023-02-14T17:07:42.621Z,27.50
2023-02-14T17:10:21.552Z,27.50
2023-02-14T17:12:52.657Z,27.40
2023-02-14T17:15:25.949Z,27.40
2023-02-14T17:18:04.873Z,27.40
2023-02-14T17:20:34.485Z,27.40
2023-02-14T17:23:04.617Z,27.40
2023-02-14T17:25:34.137Z,27.30
2023-02-14T17:28:03.291Z,27.30
2023-02-14T17:30:32.661Z,27.30
2023-02-14T17:33:02.226Z,27.30
2023-02-14T17:35:31.906Z,27.30
2023-02-14T17:38:01.490Z,27.30
2023-02-14T17:40:33.760Z,27.30
2023-02-14T17:43:03.196Z,27.30
2023-02-14T17:45:32.493Z,27.30
2023-02-14T17:48:02.675Z,27.20
2023-02-14T17:50:31.992Z,27.20
2023-02-14T17:53:01.239Z,27.20
2023-02-14T17:55:30.651Z,27.10
2023-02-14T17:57:59.881Z,27.10
2023-02-14T18:00:29.276Z,27.10
2023-02-14T18:02:58.539Z,27.00
2023-02-14T18:05:27.810Z,27.00
2023-02-14T18:07:57.023Z,27.00
2023-02-14T18:10:26.289Z,27.00
2023-02-14T18:12:55.616Z,27.00
2023-02-14T18:15:24.877Z,26.90
2023-02-14T18:17:54.164Z,26.90
2023-02-14T18:20:23.366Z,26.90
2023-02-14T18:22:52.581Z,26.80
2023-02-14T18:25:21.874Z,26.80
2023-02-14T18:27:51.169Z,26.80
2023-02-14T18:30:20.637Z,26.80
2023-02-14T18:32:49.926Z,26.80
2023-02-14T18:35:19.302Z,26.70
2023-02-14T18:37:52.760Z,26.70
2023-02-14T18:40:23.182Z,26.70
2023-02-14T18:42:52.475Z,26.70
2023-02-14T18:45:21.934Z,26.70
2023-02-14T18:47:51.268Z,26.60
2023-02-14T18:50:20.700Z,26.60
2023-02-14T18:52:49.916Z,26.60
2023-02-14T18:55:19.232Z,26.50
2023-02-14T18:57:48.571Z,26.50
2023-02-14T19:00:18.400Z,26.50
2023-02-14T19:02:48.260Z,26.40
2023-02-14T19:05:17.571Z,26.40
2023-02-14T19:07:47.105Z,26.40
2023-02-14T19:10:16.437Z,26.40
2023-02-14T19:12:46.352Z,26.30
2023-02-14T19:15:15.692Z,26.30
2023-02-14T19:17:44.976Z,26.20
2023-02-14T19:20:16.095Z,26.10
2023-02-14T19:22:45.377Z,26.10
2023-02-14T19:25:14.655Z,26.00
2023-02-14T19:27:44.040Z,26.00
2023-02-14T19:30:13.710Z,25.90
2023-02-14T19:32:42.940Z,25.90
2023-02-14T19:35:12.816Z,25.80
2023-02-14T19:37:42.161Z,25.80
2023-02-14T19:40:12.331Z,25.80
2023-02-14T19:42:41.550Z,25.80
2023-02-14T19:45:11.151Z,25.80
2023-02-14T19:47:47.030Z,25.70
2023-02-14T19:50:16.973Z,25.60
2023-02-14T19:52:46.549Z,25.60
2023-02-14T19:55:24.156Z,25.60
2023-02-14T19:57:53.410Z,25.50
2023-02-14T20:00:22.834Z,25.50
2023-02-14T20:02:52.861Z,25.40
2023-02-14T20:05:24.009Z,25.40
2023-02-14T20:07:56.120Z,25.40
2023-02-14T20:10:25.421Z,25.30
2023-02-14T20:12:54.678Z,25.30
2023-02-14T20:15:23.993Z,25.30
2023-02-14T20:17:53.223Z,25.20
2023-02-14T20:20:22.770Z,25.20
2023-02-14T20:22:51.969Z,25.20
2023-02-14T20:25:21.386Z,25.20
2023-02-14T20:27:55.590Z,25.10
2023-02-14T20:30:25.008Z,25.10
2023-02-14T20:32:54.431Z,25.10
2023-02-14T20:35:23.705Z,25.10
2023-02-14T20:37:53.455Z,25.00
2023-02-14T20:40:22.748Z,25.00
2023-02-14T20:42:51.964Z,25.00
2023-02-14T20:45:21.236Z,25.00
2023-02-14T20:47:51.137Z,25.00
2023-02-14T20:50:20.705Z,24.90
2023-02-14T20:52:49.985Z,24.90
2023-02-14T20:55:19.275Z,24.90
2023-02-14T20:57:48.552Z,24.90
2023-02-14T21:00:18.097Z,24.90
2023-02-14T21:02:47.316Z,24.90
2023-02-14T21:05:19.394Z,24.90
2023-02-14T21:07:48.761Z,24.90
2023-02-14T21:10:18.446Z,24.80
2023-02-14T21:12:49.309Z,24.80
2023-02-14T21:15:18.636Z,24.80
2023-02-14T21:17:47.870Z,24.80
2023-02-14T21:20:17.409Z,24.80
2023-02-14T21:22:46.944Z,24.80
2023-02-14T21:25:16.555Z,24.80
2023-02-14T21:27:46.256Z,24.70
2023-02-14T21:30:15.998Z,24.70
2023-02-14T21:32:45.239Z,24.70
2023-02-14T21:35:14.527Z,24.70
2023-02-14T21:37:43.798Z,24.70
2023-02-14T21:40:13.682Z,24.70
2023-02-14T21:42:43.102Z,24.60
2023-02-14T21:45:33.104Z,24.70
2023-02-14T21:48:20.626Z,24.60
2023-02-14T21:50:49.893Z,24.60
2023-02-14T21:53:19.382Z,24.60
2023-02-14T21:55:48.740Z,24.60
2023-02-14T21:58:18.025Z,24.60
2023-02-14T22:00:49.102Z,24.60
2023-02-14T22:03:18.376Z,24.60
2023-02-14T22:05:47.572Z,24.60
2023-02-14T22:08:16.816Z,24.60
2023-02-14T22:10:46.123Z,24.60
2023-02-14T22:13:15.379Z,24.60
2023-02-14T22:15:44.647Z,24.60
2023-02-14T22:18:13.939Z,24.60
2023-02-14T22:20:43.258Z,24.60
2023-02-14T22:23:12.777Z,24.60
2023-02-14T22:25:42.096Z,24.60
2023-02-14T22:28:11.649Z,24.60
2023-02-14T22:30:41.214Z,24.60
2023-02-14T22:33:10.460Z,24.60
2023-02-14T22:35:39.748Z,24.60
2023-02-14T22:38:09.721Z,24.60
2023-02-14T22:40:40.105Z,24.60
2023-02-14T22:43:09.515Z,24.60
2023-02-14T22:45:38.597Z,24.60
2023-02-14T22:48:07.761Z,24.60
2023-02-14T22:50:37.015Z,24.50
2023-02-14T22:53:06.253Z,24.50
2023-02-14T22:55:35.785Z,24.50
2023-02-14T22:58:04.937Z,24.50
2023-02-14T23:00:34.155Z,24.40
2023-02-14T23:03:03.268Z,24.40
2023-02-14T23:05:32.446Z,24.40
2023-02-14T23:08:03.312Z,24.40
2023-02-14T23:10:32.418Z,24.40
2023-02-14T23:13:19.815Z,24.40
